<?xml version="1.0" encoding="UTF-8" standalone="no" ?>
<gpx xmlns="http://www.topografix.com/GPX/1/1" xmlns:xsi="http://www.w3.org/2001/XMLSchema-instance" xsi:schemaLocation="http://www.topografix.com/GPX/1/1 http://www.topografix.com/GPX/1/1/gpx.xsd" version="1.1" creator="VisuGPX - https://www.visugpx.com">
  <metadata>
    <name>NUCOURT</name>
  </metadata>
  <trk>
    <name><![CDATA[NUCOURT-18325217]]></name>
    <trkseg>
      <trkpt lat="49.15791" lon="1.8523">
        <ele>116</ele>
        <time>2024-10-25T07:55:33Z</time>
      </trkpt>
      <trkpt lat="49.15788" lon="1.85219">
        <ele>116</ele>
        <time>2024-10-25T07:55:43Z</time>
      </trkpt>
      <trkpt lat="49.1578" lon="1.85233">
        <ele>117</ele>
        <time>2024-10-25T07:56:00Z</time>
      </trkpt>
      <trkpt lat="49.15775" lon="1.85256">
        <ele>117</ele>
        <time>2024-10-25T07:56:21Z</time>
      </trkpt>
      <trkpt lat="49.15778" lon="1.85376">
        <ele>118</ele>
        <time>2024-10-25T07:58:06Z</time>
      </trkpt>
      <trkpt lat="49.15775" lon="1.85477">
        <ele>119</ele>
        <time>2024-10-25T07:59:34Z</time>
      </trkpt>
      <trkpt lat="49.15779" lon="1.85474">
        <ele>119</ele>
        <time>2024-10-25T07:59:40Z</time>
      </trkpt>
      <trkpt lat="49.15775" lon="1.85595">
        <ele>120</ele>
        <time>2024-10-25T08:01:25Z</time>
      </trkpt>
      <trkpt lat="49.15775" lon="1.85636">
        <ele>119</ele>
        <time>2024-10-25T08:02:01Z</time>
      </trkpt>
      <trkpt lat="49.15777" lon="1.85656">
        <ele>119</ele>
        <time>2024-10-25T08:02:19Z</time>
      </trkpt>
      <trkpt lat="49.15792" lon="1.85737">
        <ele>118</ele>
        <time>2024-10-25T08:03:32Z</time>
      </trkpt>
      <trkpt lat="49.15792" lon="1.85742">
        <ele>118</ele>
        <time>2024-10-25T08:03:37Z</time>
      </trkpt>
      <trkpt lat="49.15804" lon="1.85829">
        <ele>117</ele>
        <time>2024-10-25T08:04:54Z</time>
      </trkpt>
      <trkpt lat="49.15817" lon="1.85907">
        <ele>115</ele>
        <time>2024-10-25T08:06:05Z</time>
      </trkpt>
      <trkpt lat="49.15817" lon="1.85923">
        <ele>115</ele>
        <time>2024-10-25T08:06:19Z</time>
      </trkpt>
      <trkpt lat="49.15814" lon="1.85967">
        <ele>115</ele>
        <time>2024-10-25T08:06:57Z</time>
      </trkpt>
      <trkpt lat="49.15805" lon="1.86045">
        <ele>115</ele>
        <time>2024-10-25T08:08:06Z</time>
      </trkpt>
      <trkpt lat="49.15799" lon="1.86127">
        <ele>117</ele>
        <time>2024-10-25T08:09:18Z</time>
      </trkpt>
      <trkpt lat="49.15798" lon="1.8619">
        <ele>119</ele>
        <time>2024-10-25T08:10:13Z</time>
      </trkpt>
      <trkpt lat="49.158" lon="1.8623">
        <ele>120</ele>
        <time>2024-10-25T08:10:48Z</time>
      </trkpt>
      <trkpt lat="49.15808" lon="1.86256">
        <ele>121</ele>
        <time>2024-10-25T08:11:13Z</time>
      </trkpt>
      <trkpt lat="49.15881" lon="1.86474">
        <ele>119</ele>
        <time>2024-10-25T08:14:47Z</time>
      </trkpt>
      <trkpt lat="49.15902" lon="1.86554">
        <ele>118</ele>
        <time>2024-10-25T08:16:02Z</time>
      </trkpt>
      <trkpt lat="49.15913" lon="1.86623">
        <ele>117</ele>
        <time>2024-10-25T08:17:04Z</time>
      </trkpt>
      <trkpt lat="49.15922" lon="1.8666">
        <ele>117</ele>
        <time>2024-10-25T08:17:39Z</time>
      </trkpt>
      <trkpt lat="49.1593" lon="1.86681">
        <ele>116</ele>
        <time>2024-10-25T08:18:00Z</time>
      </trkpt>
      <trkpt lat="49.1597" lon="1.86758">
        <ele>114</ele>
        <time>2024-10-25T08:19:26Z</time>
      </trkpt>
      <trkpt lat="49.15979" lon="1.86794">
        <ele>114</ele>
        <time>2024-10-25T08:19:59Z</time>
      </trkpt>
      <trkpt lat="49.15986" lon="1.86849">
        <ele>114</ele>
        <time>2024-10-25T08:20:48Z</time>
      </trkpt>
      <trkpt lat="49.15989" lon="1.86901">
        <ele>113</ele>
        <time>2024-10-25T08:21:34Z</time>
      </trkpt>
      <trkpt lat="49.15998" lon="1.86975">
        <ele>113</ele>
        <time>2024-10-25T08:22:40Z</time>
      </trkpt>
      <trkpt lat="49.16001" lon="1.86974">
        <ele>113</ele>
        <time>2024-10-25T08:22:44Z</time>
      </trkpt>
      <trkpt lat="49.15998" lon="1.86975">
        <ele>113</ele>
        <time>2024-10-25T08:22:48Z</time>
      </trkpt>
      <trkpt lat="49.16016" lon="1.87169">
        <ele>113</ele>
        <time>2024-10-25T08:25:39Z</time>
      </trkpt>
      <trkpt lat="49.16051" lon="1.87353">
        <ele>113</ele>
        <time>2024-10-25T08:28:26Z</time>
      </trkpt>
      <trkpt lat="49.16078" lon="1.87456">
        <ele>114</ele>
        <time>2024-10-25T08:30:03Z</time>
      </trkpt>
      <trkpt lat="49.16119" lon="1.87599">
        <ele>115</ele>
        <time>2024-10-25T08:32:19Z</time>
      </trkpt>
      <trkpt lat="49.16143" lon="1.87714">
        <ele>116</ele>
        <time>2024-10-25T08:34:04Z</time>
      </trkpt>
      <trkpt lat="49.1615" lon="1.87774">
        <ele>117</ele>
        <time>2024-10-25T08:34:58Z</time>
      </trkpt>
      <trkpt lat="49.16155" lon="1.87865">
        <ele>117</ele>
        <time>2024-10-25T08:36:17Z</time>
      </trkpt>
      <trkpt lat="49.16155" lon="1.8791">
        <ele>117</ele>
        <time>2024-10-25T08:36:57Z</time>
      </trkpt>
      <trkpt lat="49.16154" lon="1.8796">
        <ele>118</ele>
        <time>2024-10-25T08:37:40Z</time>
      </trkpt>
      <trkpt lat="49.16142" lon="1.88153">
        <ele>119</ele>
        <time>2024-10-25T08:40:29Z</time>
      </trkpt>
      <trkpt lat="49.1614" lon="1.88283">
        <ele>119</ele>
        <time>2024-10-25T08:42:23Z</time>
      </trkpt>
      <trkpt lat="49.16153" lon="1.88285">
        <ele>119</ele>
        <time>2024-10-25T08:42:40Z</time>
      </trkpt>
      <trkpt lat="49.16153" lon="1.88306">
        <ele>118</ele>
        <time>2024-10-25T08:42:59Z</time>
      </trkpt>
      <trkpt lat="49.1624" lon="1.88669">
        <ele>116</ele>
        <time>2024-10-25T08:48:36Z</time>
      </trkpt>
      <trkpt lat="49.16252" lon="1.88755">
        <ele>116</ele>
        <time>2024-10-25T08:49:53Z</time>
      </trkpt>
      <trkpt lat="49.16264" lon="1.88877">
        <ele>117</ele>
        <time>2024-10-25T08:51:40Z</time>
      </trkpt>
      <trkpt lat="49.16279" lon="1.88974">
        <ele>116</ele>
        <time>2024-10-25T08:53:07Z</time>
      </trkpt>
      <trkpt lat="49.16286" lon="1.89007">
        <ele>116</ele>
        <time>2024-10-25T08:53:38Z</time>
      </trkpt>
      <trkpt lat="49.16292" lon="1.89012">
        <ele>116</ele>
        <time>2024-10-25T08:53:47Z</time>
      </trkpt>
      <trkpt lat="49.16286" lon="1.89007">
        <ele>116</ele>
        <time>2024-10-25T08:53:56Z</time>
      </trkpt>
      <trkpt lat="49.1633" lon="1.8913">
        <ele>116</ele>
        <time>2024-10-25T08:55:58Z</time>
      </trkpt>
      <trkpt lat="49.16343" lon="1.89212">
        <ele>114</ele>
        <time>2024-10-25T08:57:12Z</time>
      </trkpt>
      <trkpt lat="49.16381" lon="1.89569">
        <ele>107</ele>
        <time>2024-10-25T09:02:27Z</time>
      </trkpt>
      <trkpt lat="49.16388" lon="1.89667">
        <ele>107</ele>
        <time>2024-10-25T09:03:54Z</time>
      </trkpt>
      <trkpt lat="49.16395" lon="1.89836">
        <ele>105</ele>
        <time>2024-10-25T09:06:21Z</time>
      </trkpt>
      <trkpt lat="49.16395" lon="1.90047">
        <ele>106</ele>
        <time>2024-10-25T09:09:25Z</time>
      </trkpt>
      <trkpt lat="49.16406" lon="1.90182">
        <ele>103</ele>
        <time>2024-10-25T09:11:24Z</time>
      </trkpt>
      <trkpt lat="49.16422" lon="1.90319">
        <ele>102</ele>
        <time>2024-10-25T09:13:26Z</time>
      </trkpt>
      <trkpt lat="49.1642" lon="1.90432">
        <ele>101</ele>
        <time>2024-10-25T09:15:04Z</time>
      </trkpt>
      <trkpt lat="49.16422" lon="1.90464">
        <ele>101</ele>
        <time>2024-10-25T09:15:32Z</time>
      </trkpt>
      <trkpt lat="49.16433" lon="1.90545">
        <ele>101</ele>
        <time>2024-10-25T09:16:44Z</time>
      </trkpt>
      <trkpt lat="49.16438" lon="1.90624">
        <ele>100</ele>
        <time>2024-10-25T09:17:54Z</time>
      </trkpt>
      <trkpt lat="49.16436" lon="1.90667">
        <ele>100</ele>
        <time>2024-10-25T09:18:31Z</time>
      </trkpt>
      <trkpt lat="49.16429" lon="1.90711">
        <ele>99</ele>
        <time>2024-10-25T09:19:11Z</time>
      </trkpt>
      <trkpt lat="49.16416" lon="1.90765">
        <ele>98</ele>
        <time>2024-10-25T09:20:01Z</time>
      </trkpt>
      <trkpt lat="49.16367" lon="1.90932">
        <ele>99</ele>
        <time>2024-10-25T09:22:41Z</time>
      </trkpt>
      <trkpt lat="49.1652" lon="1.90877">
        <ele>100</ele>
        <time>2024-10-25T09:26:10Z</time>
      </trkpt>
      <trkpt lat="49.16526" lon="1.91363">
        <ele>96</ele>
        <time>2024-10-25T09:33:15Z</time>
      </trkpt>
      <trkpt lat="49.16515" lon="1.914">
        <ele>96</ele>
        <time>2024-10-25T09:33:50Z</time>
      </trkpt>
      <trkpt lat="49.16449" lon="1.91731">
        <ele>95</ele>
        <time>2024-10-25T09:38:52Z</time>
      </trkpt>
      <trkpt lat="49.16441" lon="1.9175">
        <ele>95</ele>
        <time>2024-10-25T09:39:12Z</time>
      </trkpt>
      <trkpt lat="49.16428" lon="1.91767">
        <ele>96</ele>
        <time>2024-10-25T09:39:35Z</time>
      </trkpt>
      <trkpt lat="49.16397" lon="1.918">
        <ele>96</ele>
        <time>2024-10-25T09:40:25Z</time>
      </trkpt>
      <trkpt lat="49.16306" lon="1.91923">
        <ele>96</ele>
        <time>2024-10-25T09:43:07Z</time>
      </trkpt>
      <trkpt lat="49.16305" lon="1.91938">
        <ele>96</ele>
        <time>2024-10-25T09:43:20Z</time>
      </trkpt>
      <trkpt lat="49.16312" lon="1.9198">
        <ele>98</ele>
        <time>2024-10-25T09:43:58Z</time>
      </trkpt>
      <trkpt lat="49.16332" lon="1.9198">
        <ele>98</ele>
        <time>2024-10-25T09:44:25Z</time>
      </trkpt>
      <trkpt lat="49.16352" lon="1.91952">
        <ele>97</ele>
        <time>2024-10-25T09:45:01Z</time>
      </trkpt>
      <trkpt lat="49.16384" lon="1.91942">
        <ele>98</ele>
        <time>2024-10-25T09:45:45Z</time>
      </trkpt>
      <trkpt lat="49.1641" lon="1.91945">
        <ele>98</ele>
        <time>2024-10-25T09:46:19Z</time>
      </trkpt>
      <trkpt lat="49.16424" lon="1.91958">
        <ele>98</ele>
        <time>2024-10-25T09:46:41Z</time>
      </trkpt>
      <trkpt lat="49.16435" lon="1.91979">
        <ele>98</ele>
        <time>2024-10-25T09:47:05Z</time>
      </trkpt>
      <trkpt lat="49.1646" lon="1.92047">
        <ele>99</ele>
        <time>2024-10-25T09:48:13Z</time>
      </trkpt>
      <trkpt lat="49.16468" lon="1.9206">
        <ele>99</ele>
        <time>2024-10-25T09:48:28Z</time>
      </trkpt>
      <trkpt lat="49.16503" lon="1.92089">
        <ele>100</ele>
        <time>2024-10-25T09:49:21Z</time>
      </trkpt>
      <trkpt lat="49.1652" lon="1.92101">
        <ele>100</ele>
        <time>2024-10-25T09:49:46Z</time>
      </trkpt>
      <trkpt lat="49.16533" lon="1.92103">
        <ele>100</ele>
        <time>2024-10-25T09:50:04Z</time>
      </trkpt>
      <trkpt lat="49.16557" lon="1.92103">
        <ele>100</ele>
        <time>2024-10-25T09:50:36Z</time>
      </trkpt>
      <trkpt lat="49.16578" lon="1.92099">
        <ele>100</ele>
        <time>2024-10-25T09:51:04Z</time>
      </trkpt>
      <trkpt lat="49.1659" lon="1.921">
        <ele>100</ele>
        <time>2024-10-25T09:51:20Z</time>
      </trkpt>
      <trkpt lat="49.16601" lon="1.92109">
        <ele>101</ele>
        <time>2024-10-25T09:51:37Z</time>
      </trkpt>
      <trkpt lat="49.16683" lon="1.92267">
        <ele>107</ele>
        <time>2024-10-25T09:54:33Z</time>
      </trkpt>
      <trkpt lat="49.16715" lon="1.92301">
        <ele>109</ele>
        <time>2024-10-25T09:55:25Z</time>
      </trkpt>
      <trkpt lat="49.16728" lon="1.9232">
        <ele>110</ele>
        <time>2024-10-25T09:55:49Z</time>
      </trkpt>
      <trkpt lat="49.16731" lon="1.92324">
        <ele>110</ele>
        <time>2024-10-25T09:55:54Z</time>
      </trkpt>
      <trkpt lat="49.16655" lon="1.92457">
        <ele>112</ele>
        <time>2024-10-25T09:58:28Z</time>
      </trkpt>
      <trkpt lat="49.16625" lon="1.92501">
        <ele>110</ele>
        <time>2024-10-25T09:59:24Z</time>
      </trkpt>
      <trkpt lat="49.16639" lon="1.92482">
        <ele>111</ele>
        <time>2024-10-25T09:59:49Z</time>
      </trkpt>
      <trkpt lat="49.16661" lon="1.92492">
        <ele>111</ele>
        <time>2024-10-25T10:00:19Z</time>
      </trkpt>
      <trkpt lat="49.16718" lon="1.92488">
        <ele>111</ele>
        <time>2024-10-25T10:01:35Z</time>
      </trkpt>
      <trkpt lat="49.16781" lon="1.92463">
        <ele>111</ele>
        <time>2024-10-25T10:03:02Z</time>
      </trkpt>
      <trkpt lat="49.16817" lon="1.92461">
        <ele>111</ele>
        <time>2024-10-25T10:03:50Z</time>
      </trkpt>
      <trkpt lat="49.16824" lon="1.9248">
        <ele>112</ele>
        <time>2024-10-25T10:04:09Z</time>
      </trkpt>
      <trkpt lat="49.1683" lon="1.9253">
        <ele>111</ele>
        <time>2024-10-25T10:04:54Z</time>
      </trkpt>
      <trkpt lat="49.16836" lon="1.92591">
        <ele>109</ele>
        <time>2024-10-25T10:05:48Z</time>
      </trkpt>
      <trkpt lat="49.16839" lon="1.92609">
        <ele>108</ele>
        <time>2024-10-25T10:06:04Z</time>
      </trkpt>
      <trkpt lat="49.16847" lon="1.92606">
        <ele>108</ele>
        <time>2024-10-25T10:06:15Z</time>
      </trkpt>
      <trkpt lat="49.16839" lon="1.92609">
        <ele>108</ele>
        <time>2024-10-25T10:06:26Z</time>
      </trkpt>
      <trkpt lat="49.16841" lon="1.92621">
        <ele>107</ele>
        <time>2024-10-25T10:06:37Z</time>
      </trkpt>
      <trkpt lat="49.16842" lon="1.92763">
        <ele>100</ele>
        <time>2024-10-25T10:08:40Z</time>
      </trkpt>
      <trkpt lat="49.16857" lon="1.92984">
        <ele>93</ele>
        <time>2024-10-25T10:11:54Z</time>
      </trkpt>
      <trkpt lat="49.1687" lon="1.93121">
        <ele>88</ele>
        <time>2024-10-25T10:13:55Z</time>
      </trkpt>
      <trkpt lat="49.16869" lon="1.93207">
        <ele>84</ele>
        <time>2024-10-25T10:15:10Z</time>
      </trkpt>
      <trkpt lat="49.16814" lon="1.93312">
        <ele>85</ele>
        <time>2024-10-25T10:17:08Z</time>
      </trkpt>
      <trkpt lat="49.16798" lon="1.93319">
        <ele>85</ele>
        <time>2024-10-25T10:17:30Z</time>
      </trkpt>
      <trkpt lat="49.16814" lon="1.93312">
        <ele>85</ele>
        <time>2024-10-25T10:17:52Z</time>
      </trkpt>
      <trkpt lat="49.16872" lon="1.93274">
        <ele>81</ele>
        <time>2024-10-25T10:19:16Z</time>
      </trkpt>
      <trkpt lat="49.16924" lon="1.93253">
        <ele>77</ele>
        <time>2024-10-25T10:20:28Z</time>
      </trkpt>
      <trkpt lat="49.16982" lon="1.93246">
        <ele>76</ele>
        <time>2024-10-25T10:21:46Z</time>
      </trkpt>
      <trkpt lat="49.17015" lon="1.93254">
        <ele>75</ele>
        <time>2024-10-25T10:22:30Z</time>
      </trkpt>
      <trkpt lat="49.17117" lon="1.93312">
        <ele>72</ele>
        <time>2024-10-25T10:24:55Z</time>
      </trkpt>
      <trkpt lat="49.17125" lon="1.93315">
        <ele>71</ele>
        <time>2024-10-25T10:25:06Z</time>
      </trkpt>
      <trkpt lat="49.17133" lon="1.93314">
        <ele>71</ele>
        <time>2024-10-25T10:25:17Z</time>
      </trkpt>
      <trkpt lat="49.17154" lon="1.93306">
        <ele>72</ele>
        <time>2024-10-25T10:25:46Z</time>
      </trkpt>
      <trkpt lat="49.17214" lon="1.93262">
        <ele>74</ele>
        <time>2024-10-25T10:27:15Z</time>
      </trkpt>
      <trkpt lat="49.17285" lon="1.9323">
        <ele>73</ele>
        <time>2024-10-25T10:28:54Z</time>
      </trkpt>
      <trkpt lat="49.1734" lon="1.93193">
        <ele>74</ele>
        <time>2024-10-25T10:30:14Z</time>
      </trkpt>
      <trkpt lat="49.17362" lon="1.93188">
        <ele>74</ele>
        <time>2024-10-25T10:30:43Z</time>
      </trkpt>
      <trkpt lat="49.17402" lon="1.93191">
        <ele>74</ele>
        <time>2024-10-25T10:31:37Z</time>
      </trkpt>
      <trkpt lat="49.17436" lon="1.93182">
        <ele>73</ele>
        <time>2024-10-25T10:32:23Z</time>
      </trkpt>
      <trkpt lat="49.17458" lon="1.93177">
        <ele>73</ele>
        <time>2024-10-25T10:32:53Z</time>
      </trkpt>
      <trkpt lat="49.17496" lon="1.93138">
        <ele>73</ele>
        <time>2024-10-25T10:33:54Z</time>
      </trkpt>
      <trkpt lat="49.17532" lon="1.93095">
        <ele>72</ele>
        <time>2024-10-25T10:34:55Z</time>
      </trkpt>
      <trkpt lat="49.17504" lon="1.93046">
        <ele>73</ele>
        <time>2024-10-25T10:35:51Z</time>
      </trkpt>
      <trkpt lat="49.17474" lon="1.92967">
        <ele>76</ele>
        <time>2024-10-25T10:37:11Z</time>
      </trkpt>
      <trkpt lat="49.1745" lon="1.92842">
        <ele>78</ele>
        <time>2024-10-25T10:39:05Z</time>
      </trkpt>
      <trkpt lat="49.17446" lon="1.92823">
        <ele>79</ele>
        <time>2024-10-25T10:39:22Z</time>
      </trkpt>
      <trkpt lat="49.175" lon="1.92831">
        <ele>71</ele>
        <time>2024-10-25T10:40:35Z</time>
      </trkpt>
      <trkpt lat="49.1753" lon="1.92847">
        <ele>73</ele>
        <time>2024-10-25T10:41:17Z</time>
      </trkpt>
      <trkpt lat="49.17583" lon="1.92904">
        <ele>72</ele>
        <time>2024-10-25T10:42:43Z</time>
      </trkpt>
      <trkpt lat="49.17603" lon="1.92913">
        <ele>70</ele>
        <time>2024-10-25T10:43:11Z</time>
      </trkpt>
      <trkpt lat="49.17626" lon="1.92906">
        <ele>71</ele>
        <time>2024-10-25T10:43:43Z</time>
      </trkpt>
      <trkpt lat="49.17669" lon="1.92886">
        <ele>74</ele>
        <time>2024-10-25T10:44:43Z</time>
      </trkpt>
      <trkpt lat="49.17715" lon="1.92873">
        <ele>76</ele>
        <time>2024-10-25T10:45:45Z</time>
      </trkpt>
      <trkpt lat="49.1775" lon="1.92872">
        <ele>76</ele>
        <time>2024-10-25T10:46:32Z</time>
      </trkpt>
      <trkpt lat="49.1778" lon="1.92886">
        <ele>76</ele>
        <time>2024-10-25T10:47:13Z</time>
      </trkpt>
      <trkpt lat="49.17824" lon="1.92896">
        <ele>77</ele>
        <time>2024-10-25T10:48:13Z</time>
      </trkpt>
      <trkpt lat="49.17905" lon="1.92932">
        <ele>81</ele>
        <time>2024-10-25T10:50:05Z</time>
      </trkpt>
      <trkpt lat="49.17936" lon="1.9293">
        <ele>82</ele>
        <time>2024-10-25T10:50:47Z</time>
      </trkpt>
      <trkpt lat="49.17987" lon="1.92898">
        <ele>84</ele>
        <time>2024-10-25T10:52:00Z</time>
      </trkpt>
      <trkpt lat="49.1804" lon="1.92861">
        <ele>84</ele>
        <time>2024-10-25T10:53:18Z</time>
      </trkpt>
      <trkpt lat="49.18077" lon="1.92814">
        <ele>85</ele>
        <time>2024-10-25T10:54:22Z</time>
      </trkpt>
      <trkpt lat="49.18106" lon="1.92719">
        <ele>87</ele>
        <time>2024-10-25T10:55:54Z</time>
      </trkpt>
      <trkpt lat="49.18124" lon="1.92629">
        <ele>89</ele>
        <time>2024-10-25T10:57:16Z</time>
      </trkpt>
      <trkpt lat="49.18164" lon="1.92543">
        <ele>92</ele>
        <time>2024-10-25T10:58:48Z</time>
      </trkpt>
      <trkpt lat="49.18214" lon="1.92483">
        <ele>92</ele>
        <time>2024-10-25T11:00:13Z</time>
      </trkpt>
      <trkpt lat="49.1829" lon="1.92403">
        <ele>94</ele>
        <time>2024-10-25T11:02:16Z</time>
      </trkpt>
      <trkpt lat="49.18324" lon="1.92358">
        <ele>94</ele>
        <time>2024-10-25T11:03:16Z</time>
      </trkpt>
      <trkpt lat="49.18359" lon="1.92294">
        <ele>93</ele>
        <time>2024-10-25T11:04:29Z</time>
      </trkpt>
      <trkpt lat="49.18375" lon="1.92274">
        <ele>92</ele>
        <time>2024-10-25T11:04:56Z</time>
      </trkpt>
      <trkpt lat="49.18411" lon="1.92234">
        <ele>91</ele>
        <time>2024-10-25T11:05:56Z</time>
      </trkpt>
      <trkpt lat="49.1844" lon="1.92195">
        <ele>90</ele>
        <time>2024-10-25T11:06:47Z</time>
      </trkpt>
      <trkpt lat="49.18476" lon="1.92122">
        <ele>93</ele>
        <time>2024-10-25T11:08:07Z</time>
      </trkpt>
      <trkpt lat="49.18549" lon="1.91958">
        <ele>95</ele>
        <time>2024-10-25T11:11:00Z</time>
      </trkpt>
      <trkpt lat="49.18577" lon="1.91918">
        <ele>96</ele>
        <time>2024-10-25T11:11:51Z</time>
      </trkpt>
      <trkpt lat="49.18618" lon="1.91872">
        <ele>97</ele>
        <time>2024-10-25T11:12:59Z</time>
      </trkpt>
      <trkpt lat="49.18665" lon="1.91809">
        <ele>98</ele>
        <time>2024-10-25T11:14:22Z</time>
      </trkpt>
      <trkpt lat="49.18673" lon="1.91804">
        <ele>98</ele>
        <time>2024-10-25T11:14:34Z</time>
      </trkpt>
      <trkpt lat="49.18694" lon="1.9179">
        <ele>96</ele>
        <time>2024-10-25T11:15:04Z</time>
      </trkpt>
      <trkpt lat="49.18715" lon="1.91795">
        <ele>94</ele>
        <time>2024-10-25T11:15:33Z</time>
      </trkpt>
      <trkpt lat="49.18737" lon="1.91778">
        <ele>93</ele>
        <time>2024-10-25T11:16:06Z</time>
      </trkpt>
      <trkpt lat="49.18824" lon="1.91641">
        <ele>90</ele>
        <time>2024-10-25T11:18:52Z</time>
      </trkpt>
      <trkpt lat="49.18855" lon="1.91605">
        <ele>89</ele>
        <time>2024-10-25T11:19:44Z</time>
      </trkpt>
      <trkpt lat="49.1887" lon="1.91578">
        <ele>89</ele>
        <time>2024-10-25T11:20:15Z</time>
      </trkpt>
      <trkpt lat="49.18897" lon="1.9154">
        <ele>90</ele>
        <time>2024-10-25T11:21:04Z</time>
      </trkpt>
      <trkpt lat="49.18958" lon="1.91481">
        <ele>89</ele>
        <time>2024-10-25T11:22:40Z</time>
      </trkpt>
      <trkpt lat="49.18996" lon="1.91366">
        <ele>95</ele>
        <time>2024-10-25T11:24:33Z</time>
      </trkpt>
      <trkpt lat="49.18996" lon="1.91327">
        <ele>97</ele>
        <time>2024-10-25T11:25:07Z</time>
      </trkpt>
      <trkpt lat="49.19003" lon="1.91287">
        <ele>97</ele>
        <time>2024-10-25T11:25:43Z</time>
      </trkpt>
      <trkpt lat="49.19001" lon="1.91269">
        <ele>98</ele>
        <time>2024-10-25T11:25:59Z</time>
      </trkpt>
      <trkpt lat="49.18999" lon="1.91265">
        <ele>98</ele>
        <time>2024-10-25T11:26:03Z</time>
      </trkpt>
      <trkpt lat="49.19001" lon="1.91269">
        <ele>98</ele>
        <time>2024-10-25T11:26:08Z</time>
      </trkpt>
      <trkpt lat="49.19003" lon="1.91287">
        <ele>97</ele>
        <time>2024-10-25T11:26:23Z</time>
      </trkpt>
      <trkpt lat="49.18996" lon="1.91327">
        <ele>97</ele>
        <time>2024-10-25T11:27:00Z</time>
      </trkpt>
      <trkpt lat="49.18996" lon="1.91366">
        <ele>95</ele>
        <time>2024-10-25T11:27:34Z</time>
      </trkpt>
      <trkpt lat="49.18958" lon="1.91481">
        <ele>89</ele>
        <time>2024-10-25T11:29:26Z</time>
      </trkpt>
      <trkpt lat="49.18897" lon="1.9154">
        <ele>90</ele>
        <time>2024-10-25T11:31:02Z</time>
      </trkpt>
      <trkpt lat="49.1887" lon="1.91578">
        <ele>89</ele>
        <time>2024-10-25T11:31:51Z</time>
      </trkpt>
      <trkpt lat="49.18855" lon="1.91605">
        <ele>89</ele>
        <time>2024-10-25T11:32:22Z</time>
      </trkpt>
      <trkpt lat="49.18933" lon="1.9155">
        <ele>84</ele>
        <time>2024-10-25T11:34:17Z</time>
      </trkpt>
      <trkpt lat="49.18948" lon="1.91536">
        <ele>84</ele>
        <time>2024-10-25T11:34:40Z</time>
      </trkpt>
      <trkpt lat="49.18959" lon="1.91546">
        <ele>82</ele>
        <time>2024-10-25T11:34:57Z</time>
      </trkpt>
      <trkpt lat="49.18968" lon="1.91543">
        <ele>81</ele>
        <time>2024-10-25T11:35:10Z</time>
      </trkpt>
      <trkpt lat="49.19054" lon="1.91688">
        <ele>76</ele>
        <time>2024-10-25T11:38:00Z</time>
      </trkpt>
      <trkpt lat="49.19058" lon="1.91701">
        <ele>77</ele>
        <time>2024-10-25T11:38:13Z</time>
      </trkpt>
      <trkpt lat="49.19057" lon="1.91709">
        <ele>77</ele>
        <time>2024-10-25T11:38:20Z</time>
      </trkpt>
      <trkpt lat="49.1906" lon="1.91702">
        <ele>77</ele>
        <time>2024-10-25T11:38:27Z</time>
      </trkpt>
      <trkpt lat="49.19061" lon="1.91689">
        <ele>76</ele>
        <time>2024-10-25T11:38:39Z</time>
      </trkpt>
      <trkpt lat="49.19059" lon="1.91681">
        <ele>76</ele>
        <time>2024-10-25T11:38:46Z</time>
      </trkpt>
      <trkpt lat="49.19029" lon="1.9163">
        <ele>74</ele>
        <time>2024-10-25T11:39:46Z</time>
      </trkpt>
      <trkpt lat="49.19001" lon="1.91576">
        <ele>74</ele>
        <time>2024-10-25T11:40:46Z</time>
      </trkpt>
      <trkpt lat="49.18998" lon="1.91547">
        <ele>77</ele>
        <time>2024-10-25T11:41:12Z</time>
      </trkpt>
      <trkpt lat="49.19001" lon="1.91523">
        <ele>79</ele>
        <time>2024-10-25T11:41:33Z</time>
      </trkpt>
      <trkpt lat="49.19005" lon="1.91512">
        <ele>80</ele>
        <time>2024-10-25T11:41:44Z</time>
      </trkpt>
      <trkpt lat="49.19045" lon="1.91424">
        <ele>83</ele>
        <time>2024-10-25T11:43:18Z</time>
      </trkpt>
      <trkpt lat="49.19079" lon="1.9133">
        <ele>82</ele>
        <time>2024-10-25T11:44:51Z</time>
      </trkpt>
      <trkpt lat="49.19086" lon="1.91316">
        <ele>82</ele>
        <time>2024-10-25T11:45:07Z</time>
      </trkpt>
      <trkpt lat="49.1914" lon="1.91259">
        <ele>83</ele>
        <time>2024-10-25T11:46:34Z</time>
      </trkpt>
      <trkpt lat="49.19145" lon="1.91253">
        <ele>83</ele>
        <time>2024-10-25T11:46:43Z</time>
      </trkpt>
      <trkpt lat="49.19158" lon="1.91238">
        <ele>83</ele>
        <time>2024-10-25T11:47:04Z</time>
      </trkpt>
      <trkpt lat="49.19163" lon="1.91238">
        <ele>83</ele>
        <time>2024-10-25T11:47:11Z</time>
      </trkpt>
      <trkpt lat="49.1917" lon="1.91244">
        <ele>83</ele>
        <time>2024-10-25T11:47:22Z</time>
      </trkpt>
      <trkpt lat="49.19169" lon="1.91233">
        <ele>83</ele>
        <time>2024-10-25T11:47:31Z</time>
      </trkpt>
      <trkpt lat="49.19178" lon="1.91222">
        <ele>84</ele>
        <time>2024-10-25T11:47:47Z</time>
      </trkpt>
      <trkpt lat="49.19187" lon="1.91207">
        <ele>85</ele>
        <time>2024-10-25T11:48:05Z</time>
      </trkpt>
      <trkpt lat="49.19293" lon="1.91085">
        <ele>89</ele>
        <time>2024-10-25T11:51:02Z</time>
      </trkpt>
      <trkpt lat="49.19303" lon="1.91076">
        <ele>89</ele>
        <time>2024-10-25T11:51:17Z</time>
      </trkpt>
      <trkpt lat="49.19311" lon="1.91064">
        <ele>89</ele>
        <time>2024-10-25T11:51:32Z</time>
      </trkpt>
      <trkpt lat="49.19318" lon="1.91057">
        <ele>90</ele>
        <time>2024-10-25T11:51:43Z</time>
      </trkpt>
      <trkpt lat="49.19326" lon="1.9104">
        <ele>89</ele>
        <time>2024-10-25T11:52:01Z</time>
      </trkpt>
      <trkpt lat="49.19332" lon="1.91019">
        <ele>88</ele>
        <time>2024-10-25T11:52:21Z</time>
      </trkpt>
      <trkpt lat="49.19339" lon="1.90989">
        <ele>88</ele>
        <time>2024-10-25T11:52:49Z</time>
      </trkpt>
      <trkpt lat="49.19344" lon="1.90982">
        <ele>88</ele>
        <time>2024-10-25T11:52:58Z</time>
      </trkpt>
      <trkpt lat="49.1935" lon="1.90963">
        <ele>89</ele>
        <time>2024-10-25T11:53:17Z</time>
      </trkpt>
      <trkpt lat="49.19367" lon="1.90918">
        <ele>89</ele>
        <time>2024-10-25T11:54:02Z</time>
      </trkpt>
      <trkpt lat="49.19385" lon="1.90849">
        <ele>90</ele>
        <time>2024-10-25T11:55:07Z</time>
      </trkpt>
      <trkpt lat="49.194" lon="1.90802">
        <ele>90</ele>
        <time>2024-10-25T11:55:52Z</time>
      </trkpt>
      <trkpt lat="49.19412" lon="1.90817">
        <ele>91</ele>
        <time>2024-10-25T11:56:13Z</time>
      </trkpt>
      <trkpt lat="49.19443" lon="1.90848">
        <ele>99</ele>
        <time>2024-10-25T11:57:02Z</time>
      </trkpt>
      <trkpt lat="49.19451" lon="1.90823">
        <ele>99</ele>
        <time>2024-10-25T11:57:27Z</time>
      </trkpt>
      <trkpt lat="49.19514" lon="1.90679">
        <ele>100</ele>
        <time>2024-10-25T11:59:58Z</time>
      </trkpt>
      <trkpt lat="49.1955" lon="1.90616">
        <ele>102</ele>
        <time>2024-10-25T12:01:11Z</time>
      </trkpt>
      <trkpt lat="49.19685" lon="1.90411">
        <ele>105</ele>
        <time>2024-10-25T12:05:25Z</time>
      </trkpt>
      <trkpt lat="49.19701" lon="1.90375">
        <ele>103</ele>
        <time>2024-10-25T12:06:03Z</time>
      </trkpt>
      <trkpt lat="49.19706" lon="1.90332">
        <ele>101</ele>
        <time>2024-10-25T12:06:41Z</time>
      </trkpt>
      <trkpt lat="49.19713" lon="1.90322">
        <ele>101</ele>
        <time>2024-10-25T12:06:53Z</time>
      </trkpt>
      <trkpt lat="49.19713" lon="1.90307">
        <ele>101</ele>
        <time>2024-10-25T12:07:07Z</time>
      </trkpt>
      <trkpt lat="49.19713" lon="1.90137">
        <ele>97</ele>
        <time>2024-10-25T12:09:35Z</time>
      </trkpt>
      <trkpt lat="49.19715" lon="1.90075">
        <ele>96</ele>
        <time>2024-10-25T12:10:29Z</time>
      </trkpt>
      <trkpt lat="49.19715" lon="1.90026">
        <ele>96</ele>
        <time>2024-10-25T12:11:12Z</time>
      </trkpt>
      <trkpt lat="49.19714" lon="1.90002">
        <ele>96</ele>
        <time>2024-10-25T12:11:33Z</time>
      </trkpt>
      <trkpt lat="49.19703" lon="1.89949">
        <ele>98</ele>
        <time>2024-10-25T12:12:21Z</time>
      </trkpt>
      <trkpt lat="49.19703" lon="1.89921">
        <ele>100</ele>
        <time>2024-10-25T12:12:46Z</time>
      </trkpt>
      <trkpt lat="49.19706" lon="1.89892">
        <ele>100</ele>
        <time>2024-10-25T12:13:11Z</time>
      </trkpt>
      <trkpt lat="49.19717" lon="1.89866">
        <ele>100</ele>
        <time>2024-10-25T12:13:38Z</time>
      </trkpt>
      <trkpt lat="49.19724" lon="1.89844">
        <ele>100</ele>
        <time>2024-10-25T12:13:59Z</time>
      </trkpt>
      <trkpt lat="49.1973" lon="1.89777">
        <ele>100</ele>
        <time>2024-10-25T12:14:58Z</time>
      </trkpt>
      <trkpt lat="49.19741" lon="1.8975">
        <ele>101</ele>
        <time>2024-10-25T12:15:26Z</time>
      </trkpt>
      <trkpt lat="49.1976" lon="1.89695">
        <ele>103</ele>
        <time>2024-10-25T12:16:20Z</time>
      </trkpt>
      <trkpt lat="49.19766" lon="1.89662">
        <ele>103</ele>
        <time>2024-10-25T12:16:50Z</time>
      </trkpt>
      <trkpt lat="49.19783" lon="1.89533">
        <ele>103</ele>
        <time>2024-10-25T12:18:45Z</time>
      </trkpt>
      <trkpt lat="49.19789" lon="1.89506">
        <ele>103</ele>
        <time>2024-10-25T12:19:10Z</time>
      </trkpt>
      <trkpt lat="49.19803" lon="1.89474">
        <ele>103</ele>
        <time>2024-10-25T12:19:43Z</time>
      </trkpt>
      <trkpt lat="49.19815" lon="1.89454">
        <ele>103</ele>
        <time>2024-10-25T12:20:07Z</time>
      </trkpt>
      <trkpt lat="49.19833" lon="1.89438">
        <ele>104</ele>
        <time>2024-10-25T12:20:35Z</time>
      </trkpt>
      <trkpt lat="49.19858" lon="1.8943">
        <ele>104</ele>
        <time>2024-10-25T12:21:09Z</time>
      </trkpt>
      <trkpt lat="49.19888" lon="1.8943">
        <ele>105</ele>
        <time>2024-10-25T12:21:49Z</time>
      </trkpt>
      <trkpt lat="49.19896" lon="1.89425">
        <ele>105</ele>
        <time>2024-10-25T12:22:01Z</time>
      </trkpt>
      <trkpt lat="49.19883" lon="1.8941">
        <ele>104</ele>
        <time>2024-10-25T12:22:22Z</time>
      </trkpt>
      <trkpt lat="49.19871" lon="1.89402">
        <ele>104</ele>
        <time>2024-10-25T12:22:40Z</time>
      </trkpt>
      <trkpt lat="49.19842" lon="1.89383">
        <ele>103</ele>
        <time>2024-10-25T12:23:22Z</time>
      </trkpt>
      <trkpt lat="49.1982" lon="1.89356">
        <ele>101</ele>
        <time>2024-10-25T12:24:00Z</time>
      </trkpt>
      <trkpt lat="49.19789" lon="1.89305">
        <ele>99</ele>
        <time>2024-10-25T12:25:00Z</time>
      </trkpt>
      <trkpt lat="49.19708" lon="1.89115">
        <ele>101</ele>
        <time>2024-10-25T12:28:18Z</time>
      </trkpt>
      <trkpt lat="49.1959" lon="1.8896">
        <ele>99</ele>
        <time>2024-10-25T12:31:46Z</time>
      </trkpt>
      <trkpt lat="49.19522" lon="1.88853">
        <ele>100</ele>
        <time>2024-10-25T12:33:56Z</time>
      </trkpt>
      <trkpt lat="49.19427" lon="1.8879">
        <ele>100</ele>
        <time>2024-10-25T12:36:14Z</time>
      </trkpt>
      <trkpt lat="49.19097" lon="1.8851">
        <ele>103</ele>
        <time>2024-10-25T12:44:37Z</time>
      </trkpt>
      <trkpt lat="49.1907" lon="1.88444">
        <ele>104</ele>
        <time>2024-10-25T12:45:45Z</time>
      </trkpt>
      <trkpt lat="49.19027" lon="1.88287">
        <ele>107</ele>
        <time>2024-10-25T12:48:14Z</time>
      </trkpt>
      <trkpt lat="49.18978" lon="1.88204">
        <ele>108</ele>
        <time>2024-10-25T12:49:51Z</time>
      </trkpt>
      <trkpt lat="49.18995" lon="1.88168">
        <ele>109</ele>
        <time>2024-10-25T12:50:30Z</time>
      </trkpt>
      <trkpt lat="49.19025" lon="1.88136">
        <ele>109</ele>
        <time>2024-10-25T12:51:19Z</time>
      </trkpt>
      <trkpt lat="49.19033" lon="1.88127">
        <ele>109</ele>
        <time>2024-10-25T12:51:32Z</time>
      </trkpt>
      <trkpt lat="49.19038" lon="1.88117">
        <ele>109</ele>
        <time>2024-10-25T12:51:43Z</time>
      </trkpt>
      <trkpt lat="49.19034" lon="1.88111">
        <ele>109</ele>
        <time>2024-10-25T12:51:51Z</time>
      </trkpt>
      <trkpt lat="49.19035" lon="1.88101">
        <ele>109</ele>
        <time>2024-10-25T12:51:59Z</time>
      </trkpt>
      <trkpt lat="49.19027" lon="1.88083">
        <ele>109</ele>
        <time>2024-10-25T12:52:18Z</time>
      </trkpt>
      <trkpt lat="49.18979" lon="1.88008">
        <ele>110</ele>
        <time>2024-10-25T12:53:50Z</time>
      </trkpt>
      <trkpt lat="49.18898" lon="1.87918">
        <ele>111</ele>
        <time>2024-10-25T12:56:04Z</time>
      </trkpt>
      <trkpt lat="49.18862" lon="1.87895">
        <ele>112</ele>
        <time>2024-10-25T12:56:56Z</time>
      </trkpt>
      <trkpt lat="49.18762" lon="1.87864">
        <ele>110</ele>
        <time>2024-10-25T12:59:12Z</time>
      </trkpt>
      <trkpt lat="49.18708" lon="1.87854">
        <ele>110</ele>
        <time>2024-10-25T13:00:24Z</time>
      </trkpt>
      <trkpt lat="49.18672" lon="1.8759">
        <ele>114</ele>
        <time>2024-10-25T13:04:20Z</time>
      </trkpt>
      <trkpt lat="49.18664" lon="1.87403">
        <ele>116</ele>
        <time>2024-10-25T13:07:03Z</time>
      </trkpt>
      <trkpt lat="49.18659" lon="1.87329">
        <ele>116</ele>
        <time>2024-10-25T13:08:08Z</time>
      </trkpt>
      <trkpt lat="49.18655" lon="1.87288">
        <ele>116</ele>
        <time>2024-10-25T13:08:44Z</time>
      </trkpt>
      <trkpt lat="49.18623" lon="1.87108">
        <ele>118</ele>
        <time>2024-10-25T13:11:27Z</time>
      </trkpt>
      <trkpt lat="49.18614" lon="1.87041">
        <ele>118</ele>
        <time>2024-10-25T13:12:26Z</time>
      </trkpt>
      <trkpt lat="49.18593" lon="1.86833">
        <ele>121</ele>
        <time>2024-10-25T13:15:30Z</time>
      </trkpt>
      <trkpt lat="49.18526" lon="1.86472">
        <ele>124</ele>
        <time>2024-10-25T13:20:57Z</time>
      </trkpt>
      <trkpt lat="49.18523" lon="1.86448">
        <ele>124</ele>
        <time>2024-10-25T13:21:19Z</time>
      </trkpt>
      <trkpt lat="49.18526" lon="1.86392">
        <ele>124</ele>
        <time>2024-10-25T13:22:08Z</time>
      </trkpt>
      <trkpt lat="49.18524" lon="1.8638">
        <ele>124</ele>
        <time>2024-10-25T13:22:18Z</time>
      </trkpt>
      <trkpt lat="49.18519" lon="1.8637">
        <ele>125</ele>
        <time>2024-10-25T13:22:29Z</time>
      </trkpt>
      <trkpt lat="49.1851" lon="1.86364">
        <ele>125</ele>
        <time>2024-10-25T13:22:43Z</time>
      </trkpt>
      <trkpt lat="49.18483" lon="1.86358">
        <ele>125</ele>
        <time>2024-10-25T13:23:19Z</time>
      </trkpt>
      <trkpt lat="49.18446" lon="1.86337">
        <ele>125</ele>
        <time>2024-10-25T13:24:12Z</time>
      </trkpt>
      <trkpt lat="49.1842" lon="1.86316">
        <ele>125</ele>
        <time>2024-10-25T13:24:51Z</time>
      </trkpt>
      <trkpt lat="49.18396" lon="1.86293">
        <ele>126</ele>
        <time>2024-10-25T13:25:29Z</time>
      </trkpt>
      <trkpt lat="49.18216" lon="1.86072">
        <ele>133</ele>
        <time>2024-10-25T13:30:37Z</time>
      </trkpt>
      <trkpt lat="49.18084" lon="1.85904">
        <ele>135</ele>
        <time>2024-10-25T13:34:26Z</time>
      </trkpt>
      <trkpt lat="49.18074" lon="1.85888">
        <ele>136</ele>
        <time>2024-10-25T13:34:45Z</time>
      </trkpt>
      <trkpt lat="49.18069" lon="1.85873">
        <ele>136</ele>
        <time>2024-10-25T13:35:00Z</time>
      </trkpt>
      <trkpt lat="49.18066" lon="1.85855">
        <ele>136</ele>
        <time>2024-10-25T13:35:16Z</time>
      </trkpt>
      <trkpt lat="49.18065" lon="1.85843">
        <ele>137</ele>
        <time>2024-10-25T13:35:27Z</time>
      </trkpt>
      <trkpt lat="49.18057" lon="1.85852">
        <ele>136</ele>
        <time>2024-10-25T13:35:40Z</time>
      </trkpt>
      <trkpt lat="49.18065" lon="1.85843">
        <ele>137</ele>
        <time>2024-10-25T13:35:53Z</time>
      </trkpt>
      <trkpt lat="49.18061" lon="1.85832">
        <ele>137</ele>
        <time>2024-10-25T13:36:04Z</time>
      </trkpt>
      <trkpt lat="49.18055" lon="1.85821">
        <ele>137</ele>
        <time>2024-10-25T13:36:17Z</time>
      </trkpt>
      <trkpt lat="49.18035" lon="1.85814">
        <ele>136</ele>
        <time>2024-10-25T13:36:44Z</time>
      </trkpt>
      <trkpt lat="49.18025" lon="1.85796">
        <ele>136</ele>
        <time>2024-10-25T13:37:04Z</time>
      </trkpt>
      <trkpt lat="49.17948" lon="1.85721">
        <ele>133</ele>
        <time>2024-10-25T13:39:06Z</time>
      </trkpt>
      <trkpt lat="49.17636" lon="1.85404">
        <ele>125</ele>
        <time>2024-10-25T13:47:26Z</time>
      </trkpt>
      <trkpt lat="49.17543" lon="1.85297">
        <ele>124</ele>
        <time>2024-10-25T13:50:01Z</time>
      </trkpt>
      <trkpt lat="49.1741" lon="1.85172">
        <ele>120</ele>
        <time>2024-10-25T13:53:30Z</time>
      </trkpt>
      <trkpt lat="49.17366" lon="1.85147">
        <ele>120</ele>
        <time>2024-10-25T13:54:32Z</time>
      </trkpt>
      <trkpt lat="49.17348" lon="1.85131">
        <ele>120</ele>
        <time>2024-10-25T13:55:00Z</time>
      </trkpt>
      <trkpt lat="49.17333" lon="1.85111">
        <ele>120</ele>
        <time>2024-10-25T13:55:27Z</time>
      </trkpt>
      <trkpt lat="49.17239" lon="1.84905">
        <ele>120</ele>
        <time>2024-10-25T13:59:06Z</time>
      </trkpt>
      <trkpt lat="49.17187" lon="1.84777">
        <ele>120</ele>
        <time>2024-10-25T14:01:17Z</time>
      </trkpt>
      <trkpt lat="49.17168" lon="1.84714">
        <ele>120</ele>
        <time>2024-10-25T14:02:18Z</time>
      </trkpt>
      <trkpt lat="49.17163" lon="1.84693">
        <ele>120</ele>
        <time>2024-10-25T14:02:37Z</time>
      </trkpt>
      <trkpt lat="49.17162" lon="1.84669">
        <ele>120</ele>
        <time>2024-10-25T14:02:58Z</time>
      </trkpt>
      <trkpt lat="49.17164" lon="1.84638">
        <ele>121</ele>
        <time>2024-10-25T14:03:26Z</time>
      </trkpt>
      <trkpt lat="49.17177" lon="1.84546">
        <ele>122</ele>
        <time>2024-10-25T14:04:48Z</time>
      </trkpt>
      <trkpt lat="49.17177" lon="1.84517">
        <ele>122</ele>
        <time>2024-10-25T14:05:13Z</time>
      </trkpt>
      <trkpt lat="49.17171" lon="1.84485">
        <ele>122</ele>
        <time>2024-10-25T14:05:42Z</time>
      </trkpt>
      <trkpt lat="49.17145" lon="1.84412">
        <ele>122</ele>
        <time>2024-10-25T14:06:55Z</time>
      </trkpt>
      <trkpt lat="49.17127" lon="1.84368">
        <ele>121</ele>
        <time>2024-10-25T14:07:40Z</time>
      </trkpt>
      <trkpt lat="49.17116" lon="1.84342">
        <ele>120</ele>
        <time>2024-10-25T14:08:07Z</time>
      </trkpt>
      <trkpt lat="49.17083" lon="1.84349">
        <ele>123</ele>
        <time>2024-10-25T14:08:51Z</time>
      </trkpt>
      <trkpt lat="49.17072" lon="1.84339">
        <ele>123</ele>
        <time>2024-10-25T14:09:08Z</time>
      </trkpt>
      <trkpt lat="49.17057" lon="1.84332">
        <ele>124</ele>
        <time>2024-10-25T14:09:29Z</time>
      </trkpt>
      <trkpt lat="49.17035" lon="1.84319">
        <ele>126</ele>
        <time>2024-10-25T14:10:01Z</time>
      </trkpt>
      <trkpt lat="49.17028" lon="1.84309">
        <ele>126</ele>
        <time>2024-10-25T14:10:14Z</time>
      </trkpt>
      <trkpt lat="49.16995" lon="1.84278">
        <ele>128</ele>
        <time>2024-10-25T14:11:05Z</time>
      </trkpt>
      <trkpt lat="49.16969" lon="1.84247">
        <ele>127</ele>
        <time>2024-10-25T14:11:49Z</time>
      </trkpt>
      <trkpt lat="49.16949" lon="1.84221">
        <ele>126</ele>
        <time>2024-10-25T14:12:24Z</time>
      </trkpt>
      <trkpt lat="49.16931" lon="1.84193">
        <ele>125</ele>
        <time>2024-10-25T14:12:59Z</time>
      </trkpt>
      <trkpt lat="49.16913" lon="1.84175">
        <ele>125</ele>
        <time>2024-10-25T14:13:27Z</time>
      </trkpt>
      <trkpt lat="49.16868" lon="1.84113">
        <ele>126</ele>
        <time>2024-10-25T14:14:48Z</time>
      </trkpt>
      <trkpt lat="49.16854" lon="1.8408">
        <ele>126</ele>
        <time>2024-10-25T14:15:22Z</time>
      </trkpt>
      <trkpt lat="49.16829" lon="1.84047">
        <ele>126</ele>
        <time>2024-10-25T14:16:06Z</time>
      </trkpt>
      <trkpt lat="49.16742" lon="1.83913">
        <ele>127</ele>
        <time>2024-10-25T14:18:51Z</time>
      </trkpt>
      <trkpt lat="49.16721" lon="1.83891">
        <ele>126</ele>
        <time>2024-10-25T14:19:25Z</time>
      </trkpt>
      <trkpt lat="49.16703" lon="1.8388">
        <ele>125</ele>
        <time>2024-10-25T14:19:51Z</time>
      </trkpt>
      <trkpt lat="49.16689" lon="1.83888">
        <ele>125</ele>
        <time>2024-10-25T14:20:11Z</time>
      </trkpt>
      <trkpt lat="49.16443" lon="1.83642">
        <ele>111</ele>
        <time>2024-10-25T14:26:43Z</time>
      </trkpt>
      <trkpt lat="49.16368" lon="1.83446">
        <ele>101</ele>
        <time>2024-10-25T14:30:01Z</time>
      </trkpt>
      <trkpt lat="49.16333" lon="1.83369">
        <ele>98</ele>
        <time>2024-10-25T14:31:23Z</time>
      </trkpt>
      <trkpt lat="49.16318" lon="1.83351">
        <ele>96</ele>
        <time>2024-10-25T14:31:49Z</time>
      </trkpt>
      <trkpt lat="49.16302" lon="1.83341">
        <ele>95</ele>
        <time>2024-10-25T14:32:12Z</time>
      </trkpt>
      <trkpt lat="49.16296" lon="1.8335">
        <ele>94</ele>
        <time>2024-10-25T14:32:23Z</time>
      </trkpt>
      <trkpt lat="49.16297" lon="1.83386">
        <ele>94</ele>
        <time>2024-10-25T14:32:54Z</time>
      </trkpt>
      <trkpt lat="49.16286" lon="1.83398">
        <ele>92</ele>
        <time>2024-10-25T14:33:12Z</time>
      </trkpt>
      <trkpt lat="49.16288" lon="1.83405">
        <ele>93</ele>
        <time>2024-10-25T14:33:19Z</time>
      </trkpt>
      <trkpt lat="49.16345" lon="1.83679">
        <ele>96</ele>
        <time>2024-10-25T14:37:30Z</time>
      </trkpt>
      <trkpt lat="49.16403" lon="1.84246">
        <ele>98</ele>
        <time>2024-10-25T14:45:51Z</time>
      </trkpt>
      <trkpt lat="49.16396" lon="1.84251">
        <ele>98</ele>
        <time>2024-10-25T14:46:01Z</time>
      </trkpt>
      <trkpt lat="49.1637" lon="1.84268">
        <ele>100</ele>
        <time>2024-10-25T14:46:39Z</time>
      </trkpt>
      <trkpt lat="49.16345" lon="1.84278">
        <ele>101</ele>
        <time>2024-10-25T14:47:13Z</time>
      </trkpt>
      <trkpt lat="49.16289" lon="1.84324">
        <ele>106</ele>
        <time>2024-10-25T14:48:38Z</time>
      </trkpt>
      <trkpt lat="49.16246" lon="1.84377">
        <ele>109</ele>
        <time>2024-10-25T14:49:52Z</time>
      </trkpt>
      <trkpt lat="49.16199" lon="1.84476">
        <ele>112</ele>
        <time>2024-10-25T14:51:39Z</time>
      </trkpt>
      <trkpt lat="49.1619" lon="1.84499">
        <ele>113</ele>
        <time>2024-10-25T14:52:02Z</time>
      </trkpt>
      <trkpt lat="49.16179" lon="1.84504">
        <ele>114</ele>
        <time>2024-10-25T14:52:17Z</time>
      </trkpt>
      <trkpt lat="49.15923" lon="1.849">
        <ele>113</ele>
        <time>2024-10-25T15:00:23Z</time>
      </trkpt>
      <trkpt lat="49.15906" lon="1.84925">
        <ele>112</ele>
        <time>2024-10-25T15:00:55Z</time>
      </trkpt>
      <trkpt lat="49.15895" lon="1.84946">
        <ele>112</ele>
        <time>2024-10-25T15:01:18Z</time>
      </trkpt>
      <trkpt lat="49.15889" lon="1.84966">
        <ele>112</ele>
        <time>2024-10-25T15:01:37Z</time>
      </trkpt>
      <trkpt lat="49.15876" lon="1.84992">
        <ele>112</ele>
        <time>2024-10-25T15:02:06Z</time>
      </trkpt>
      <trkpt lat="49.15856" lon="1.85023">
        <ele>112</ele>
        <time>2024-10-25T15:02:44Z</time>
      </trkpt>
      <trkpt lat="49.15798" lon="1.85105">
        <ele>114</ele>
        <time>2024-10-25T15:04:29Z</time>
      </trkpt>
      <trkpt lat="49.15822" lon="1.85133">
        <ele>114</ele>
        <time>2024-10-25T15:05:10Z</time>
      </trkpt>
      <trkpt lat="49.15811" lon="1.85155">
        <ele>114</ele>
        <time>2024-10-25T15:05:34Z</time>
      </trkpt>
      <trkpt lat="49.1581" lon="1.85166">
        <ele>115</ele>
        <time>2024-10-25T15:05:43Z</time>
      </trkpt>
      <trkpt lat="49.15786" lon="1.85173">
        <ele>115</ele>
        <time>2024-10-25T15:06:16Z</time>
      </trkpt>
      <trkpt lat="49.15787" lon="1.85192">
        <ele>116</ele>
        <time>2024-10-25T15:06:33Z</time>
      </trkpt>
    </trkseg>
  </trk>
</gpx>